Time;durP1;ratioP1;P1;durP2;ratioP2;P2;SDS_P1;SDS_P2;PMS_P1;PMS_P2;Temp;Humidity;BMP_temperature;BMP_pressure;BME280_temperature;BME280_humidity;BME280_pressure;Samples;Min_cycle;Max_cycle;Signal;HPM_P1;HPM_P2
2022/04/13 00:00:40;;;;;;;11.48;7.85;;;;;;;13.01;55.18;101544.59;5006430;28;20089;-84
2022/04/13 00:03:06;;;;;;;7.97;7.18;;;;;;;13.00;55.53;101551.75;5005033;28;20578;-86
2022/04/13 00:05:33;;;;;;;7.68;6.88;;;;;;;12.79;55.46;101511.78;5021670;28;20061;-84
2022/04/13 00:08:06;;;;;;;9.85;7.90;;;;;;;12.89;56.04;101517.19;5004992;28;20080;-84
2022/04/13 00:10:34;;;;;;;11.10;7.90;;;;;;;12.94;55.56;101519.47;5006748;28;20143;-84
2022/04/13 00:13:01;;;;;;;12.15;9.63;;;;;;;13.13;55.84;101532.06;5006339;28;20100;-84
2022/04/13 00:15:29;;;;;;;12.43;9.35;;;;;;;13.07;55.71;101513.94;5005246;28;20093;-86
2022/04/13 00:17:55;;;;;;;11.05;8.45;;;;;;;13.26;55.86;101538.06;5005371;28;20062;-85
2022/04/13 00:20:22;;;;;;;11.88;8.90;;;;;;;13.07;55.59;101508.59;5005109;28;20136;-86
2022/04/13 00:22:49;;;;;;;10.30;9.30;;;;;;;13.08;56.14;101520.94;5007762;28;20694;-86
2022/04/13 00:25:16;;;;;;;10.02;9.02;;;;;;;12.34;56.87;101408.13;5025013;28;20136;-86
2022/04/13 00:27:42;;;;;;;9.75;8.77;;;;;;;12.94;57.07;101504.31;5024796;28;20511;-87
2022/04/13 00:30:10;;;;;;;11.63;9.40;;;;;;;12.67;56.60;101450.69;5024924;28;20049;-85
2022/04/13 00:32:36;;;;;;;11.07;10.05;;;;;;;12.94;57.49;101504.31;5025020;28;20055;-86
2022/04/13 00:35:04;;;;;;;10.48;9.40;;;;;;;12.95;57.54;101505.16;5041348;28;20154;-85
2022/04/13 00:37:32;;;;;;;12.23;10.18;;;;;;;12.87;58.94;101503.16;5025584;28;20053;-86
2022/04/13 00:39:59;;;;;;;11.82;10.60;;;;;;;12.54;58.95;101446.38;5024867;28;20290;-86
2022/04/13 00:42:26;;;;;;;13.68;11.07;;;;;;;13.09;58.95;101523.50;5041454;28;20053;-86
2022/04/13 00:44:53;;;;;;;13.30;10.57;;;;;;;13.00;59.17;101509.13;5041165;28;20045;-86
2022/04/13 00:47:20;;;;;;;13.45;10.52;;;;;;;12.77;58.77;101465.78;5024777;28;20061;-85
2022/04/13 00:49:47;;;;;;;13.88;10.18;;;;;;;13.00;59.01;101493.13;5024820;28;20132;-86
2022/04/13 00:52:15;;;;;;;16.40;11.57;;;;;;;13.04;58.93;101489.22;5041262;28;20510;-86
2022/04/13 00:54:45;;;;;;;13.15;10.70;;;;;;;12.74;58.85;101439.41;5024765;28;20057;-86
2022/04/13 00:57:15;;;;;;;12.88;11.57;;;;;;;12.98;58.66;101483.56;5028836;28;20053;-86
2022/04/13 00:59:44;;;;;;;14.20;10.77;;;;;;;13.15;59.30;101514.13;5029542;28;20054;-85
2022/04/13 01:02:12;;;;;;;12.70;10.15;;;;;;;12.64;59.46;101434.97;5028014;28;20064;-85
2022/04/13 01:04:40;;;;;;;11.10;9.98;;;;;;;12.76;59.21;101452.56;5028315;28;20285;-86
2022/04/13 01:07:08;;;;;;;10.65;9.57;;;;;;;12.88;59.36;101488.84;5028480;28;20140;-85
2022/04/13 01:09:36;;;;;;;15.55;10.98;;;;;;;12.23;58.21;101354.06;5028170;28;20050;-85
2022/04/13 01:12:03;;;;;;;11.30;10.13;;;;;;;13.05;58.39;101498.91;5029152;28;20510;-86
2022/04/13 01:14:31;;;;;;;12.07;10.57;;;;;;;11.67;59.05;101280.63;5029322;28;20145;-86
2022/04/13 01:16:59;;;;;;;13.05;10.70;;;;;;;12.54;59.06;101422.41;5044499;28;20059;-86
2022/04/13 01:19:27;;;;;;;14.00;9.30;;;;;;;12.26;58.98;101391.94;5044043;28;20115;-86
2022/04/13 01:21:58;;;;;;;15.32;10.65;;;;;;;12.66;58.59;101446.34;5027550;28;20276;-86
2022/04/13 01:24:26;;;;;;;12.07;10.88;;;;;;;13.11;59.26;101520.72;5012158;28;20499;-85
2022/04/13 01:26:53;;;;;;;13.85;11.05;;;;;;;11.99;59.11;101320.59;5024327;28;20056;-85
2022/04/13 01:29:19;;;;;;;11.40;9.70;;;;;;;11.71;59.60;101306.84;5024297;28;20134;-86
2022/04/13 01:31:46;;;;;;;13.13;11.43;;;;;;;12.92;59.99;101514.25;5024093;28;20482;-86
2022/04/13 01:34:13;;;;;;;14.32;10.80;;;;;;;12.87;60.71;101515.63;5007785;28;20049;-85
2022/04/13 01:36:40;;;;;;;12.95;11.65;;;;;;;12.59;61.01;101484.13;5008966;28;20065;-86
2022/04/13 01:39:07;;;;;;;13.35;10.75;;;;;;;12.36;61.09;101445.28;5008916;28;20516;-86
2022/04/13 01:41:34;;;;;;;12.98;11.15;;;;;;;12.71;60.96;101510.72;5008030;28;20054;-86
2022/04/13 01:44:00;;;;;;;12.88;11.63;;;;;;;12.34;61.66;101457.88;5008872;28;20050;-86
2022/04/13 01:46:27;;;;;;;12.50;11.30;;;;;;;12.42;61.76;101479.38;5007771;28;20065;-86
2022/04/13 01:48:53;;;;;;;13.48;11.70;;;;;;;12.50;61.49;101489.38;5007339;28;20057;-86
2022/04/13 01:51:20;;;;;;;13.45;11.85;;;;;;;12.69;61.07;101502.84;5007272;28;20054;-86
2022/04/13 01:53:48;;;;;;;12.98;11.23;;;;;;;12.60;60.42;101469.03;5008875;28;20077;-87
2022/04/13 01:56:15;;;;;;;14.25;11.32;;;;;;;12.79;60.59;101498.47;5008207;28;20558;-86
2022/04/13 01:58:42;;;;;;;13.00;11.70;;;;;;;12.62;61.19;101488.34;5007106;28;20133;-86
2022/04/13 02:01:10;;;;;;;12.32;11.05;;;;;;;12.76;61.77;101527.19;5023295;28;20066;-86
2022/04/13 02:03:37;;;;;;;12.95;11.65;;;;;;;12.61;61.80;101503.50;5007423;28;20058;-86
2022/04/13 02:06:04;;;;;;;17.33;11.45;;;;;;;12.65;61.56;101519.25;5009107;28;20149;-86
2022/04/13 02:08:30;;;;;;;13.05;11.65;;;;;;;12.45;61.74;101475.59;5023257;28;20149;-86
2022/04/13 02:10:57;;;;;;;13.68;11.65;;;;;;;12.07;61.91;101413.91;5007843;28;20050;-86
2022/04/13 02:13:24;;;;;;;13.30;11.90;;;;;;;12.55;62.00;101506.69;5007673;28;20504;-86
2022/04/13 02:15:50;;;;;;;13.95;12.65;;;;;;;12.52;62.23;101506.09;5007728;28;20050;-86
2022/04/13 02:18:17;;;;;;;12.82;11.50;;;;;;;12.49;62.09;101509.84;5009309;28;20108;-86
2022/04/13 02:20:44;;;;;;;13.48;11.27;;;;;;;12.39;61.98;101490.28;5023850;28;20392;-86
2022/04/13 02:23:11;;;;;;;13.07;11.70;;;;;;;12.25;62.03;101454.13;5013857;28;20630;-85
2022/04/13 02:25:38;;;;;;;12.25;11.23;;;;;;;12.44;62.15;101485.41;5027594;28;20041;-86
2022/04/13 02:28:05;;;;;;;15.10;11.95;;;;;;;11.44;61.64;101309.13;5028577;28;20060;-86
2022/04/13 02:30:32;;;;;;;12.85;11.48;;;;;;;11.58;61.90;101332.78;5027146;28;20488;-86
2022/04/13 02:33:00;;;;;;;11.88;10.63;;;;;;;11.73;61.86;101373.25;5028498;28;20046;-86
2022/04/13 02:35:27;;;;;;;16.42;12.38;;;;;;;11.64;61.93;101350.88;5043605;28;20061;-86
2022/04/13 02:37:54;;;;;;;12.35;10.98;;;;;;;12.59;62.30;101510.78;5028359;28;20103;-86
2022/04/13 02:40:20;;;;;;;13.90;11.80;;;;;;;12.43;62.13;101481.06;5027270;28;20049;-87
2022/04/13 02:42:47;;;;;;;14.73;11.95;;;;;;;12.06;61.56;101412.22;5027539;28;20136;-86
2022/04/13 02:45:13;;;;;;;12.02;10.73;;;;;;;12.62;62.24;101504.34;5028635;28;20049;-86
2022/04/13 02:47:40;;;;;;;13.55;12.18;;;;;;;12.50;61.82;101478.72;5043280;28;20046;-86
2022/04/13 02:50:07;;;;;;;14.25;11.95;;;;;;;10.89;62.18;101224.06;5026778;28;20088;-85
2022/04/13 02:52:34;;;;;;;13.30;11.80;;;;;;;12.47;62.35;101500.28;5027769;28;20081;-85
2022/04/13 02:55:01;;;;;;;15.93;10.85;;;;;;;11.77;62.56;101378.19;5028074;28;20057;-86
2022/04/13 02:57:29;;;;;;;15.65;11.18;;;;;;;11.82;62.39;101393.78;5043664;28;20064;-86
2022/04/13 02:59:55;;;;;;;13.63;11.20;;;;;;;11.80;62.10;101394.88;5026785;28;20067;-86
2022/04/13 03:02:22;;;;;;;12.20;10.30;;;;;;;12.24;62.42;101462.25;5026457;28;20087;-86
2022/04/13 03:04:49;;;;;;;11.68;10.25;;;;;;;12.38;62.17;101486.78;5026630;28;20443;-85
2022/04/13 03:07:17;;;;;;;11.13;10.02;;;;;;;12.36;62.01;101475.41;5026168;28;20077;-85
2022/04/13 03:09:44;;;;;;;15.15;10.60;;;;;;;12.29;61.95;101486.69;5026587;28;20492;-85
2022/04/13 03:12:12;;;;;;;11.90;10.73;;;;;;;12.30;63.21;101493.69;5042966;28;20057;-85
2022/04/13 03:14:40;;;;;;;12.88;11.10;;;;;;;12.29;62.49;101497.34;5027782;28;20120;-85
2022/04/13 03:17:07;;;;;;;14.43;10.95;;;;;;;12.13;62.75;101471.94;5026703;28;20248;-85
2022/04/13 03:19:34;;;;;;;12.70;11.23;;;;;;;12.05;62.95;101458.44;5026052;28;20103;-85
2022/04/13 03:22:01;;;;;;;21.60;11.32;;;;;;;12.01;62.43;101441.03;5026006;28;20068;-85
2022/04/13 03:24:28;;;;;;;15.18;11.23;;;;;;;12.14;62.36;101465.69;5010687;28;20070;-85
2022/04/13 03:26:55;;;;;;;12.15;10.88;;;;;;;11.98;63.08;101439.47;5006488;28;20045;-85
2022/04/13 03:29:22;;;;;;;14.23;11.88;;;;;;;11.90;62.98;101441.06;5006724;28;20092;-86
2022/04/13 03:31:48;;;;;;;12.65;11.43;;;;;;;12.10;63.33;101468.72;5007702;28;20081;-85
2022/04/13 03:34:20;;;;;;;12.65;11.45;;;;;;;12.07;63.24;101472.47;5007509;28;20080;-86
2022/04/13 03:36:47;;;;;;;13.50;11.90;;;;;;;11.97;63.26;101476.84;5006319;28;20081;-85
2022/04/13 03:39:14;;;;;;;12.07;10.85;;;;;;;11.88;63.70;101475.78;5007649;28;20060;-84
2022/04/13 03:41:41;;;;;;;17.60;12.02;;;;;;;11.57;63.25;101421.50;5009707;28;20527;-85
2022/04/13 03:44:08;;;;;;;18.15;11.35;;;;;;;11.92;64.00;101490.53;5011131;28;20145;-85
2022/04/13 03:46:35;;;;;;;16.05;11.35;;;;;;;11.66;64.01;101450.00;5006810;28;20052;-85
2022/04/13 03:49:02;;;;;;;14.02;11.40;;;;;;;11.80;63.83;101470.19;5007090;28;20053;-85
2022/04/13 03:51:28;;;;;;;12.30;11.20;;;;;;;11.86;64.21;101490.13;5006391;28;20263;-85
2022/04/13 03:53:55;;;;;;;11.23;10.13;;;;;;;10.08;63.51;101218.00;5006068;28;20049;-85
2022/04/13 03:56:21;;;;;;;10.30;9.25;;;;;;;11.57;63.27;101472.03;5006273;28;20052;-85
2022/04/13 03:58:48;;;;;;;10.95;7.85;;;;;;;11.52;63.34;101455.59;5006156;28;20141;-85
2022/04/13 04:01:15;;;;;;;9.13;7.05;;;;;;;11.75;63.17;101491.84;5022304;28;20522;-85
2022/04/13 04:03:42;;;;;;;8.75;6.93;;;;;;;10.66;63.30;101314.38;5005965;28;20046;-85
2022/04/13 04:06:08;;;;;;;9.57;6.45;;;;;;;11.92;62.16;101500.34;5006226;28;20148;-85
2022/04/13 04:08:35;;;;;;;8.50;6.93;;;;;;;11.71;61.49;101450.50;5006104;28;20081;-85
2022/04/13 04:11:02;;;;;;;9.10;6.45;;;;;;;11.62;62.45;101445.91;5007182;28;20129;-85
2022/04/13 04:13:29;;;;;;;8.82;6.13;;;;;;;11.17;62.23;101403.41;5006525;28;20144;-85
2022/04/13 04:15:55;;;;;;;9.27;6.28;;;;;;;10.97;61.88;101358.94;5007295;28;20630;-85
2022/04/13 04:18:22;;;;;;;7.13;6.03;;;;;;;11.13;62.56;101396.63;5006301;28;20133;-85
2022/04/13 04:20:49;;;;;;;6.35;5.75;;;;;;;11.63;62.17;101495.47;5007200;28;20422;-86
2022/04/13 04:23:16;;;;;;;8.25;5.95;;;;;;;10.15;61.90;101244.91;5011572;28;20080;-85
2022/04/13 04:25:42;;;;;;;8.15;5.22;;;;;;;11.08;61.78;101390.84;5025791;28;20076;-86
2022/04/13 04:28:12;;;;;;;5.78;5.18;;;;;;;10.89;62.07;101381.63;5025133;28;20075;-85
2022/04/13 04:30:40;;;;;;;6.55;5.60;;;;;;;10.59;62.44;101334.41;5027145;28;20050;-85
2022/04/13 04:33:08;;;;;;;8.65;5.82;;;;;;;11.64;62.33;101507.81;5029557;28;20144;-85
2022/04/13 04:35:35;;;;;;;9.23;7.63;;;;;;;11.43;62.30;101478.44;5030290;28;20076;-85
2022/04/13 04:38:02;;;;;;;12.13;9.50;;;;;;;11.43;62.70;101483.75;5031366;28;20296;-84
2022/04/13 04:40:29;;;;;;;12.32;10.10;;;;;;;11.49;62.49;101490.41;5033299;28;20406;-84
2022/04/13 04:42:58;;;;;;;15.18;11.75;;;;;;;10.64;63.00;101365.91;5046034;28;20555;-86
2022/04/13 04:45:26;;;;;;;17.40;12.55;;;;;;;10.71;62.88;101372.44;5029033;28;20488;-86
2022/04/13 04:47:53;;;;;;;12.93;10.35;;;;;;;11.13;63.16;101439.16;5029070;28;20081;-85
2022/04/13 04:50:22;;;;;;;15.65;10.63;;;;;;;10.67;63.64;101389.56;5029599;28;20053;-85
2022/04/13 04:52:49;;;;;;;13.55;11.30;;;;;;;10.41;63.90;101357.91;5025628;28;20096;-85
2022/04/13 04:55:18;;;;;;;12.73;11.40;;;;;;;11.15;64.04;101489.53;5016936;28;20052;-86
2022/04/13 04:57:46;;;;;;;14.15;11.13;;;;;;;11.30;64.65;101529.03;4988134;28;20145;-85
2022/04/13 05:00:17;;;;;;;16.63;11.82;;;;;;;10.75;64.37;101434.13;5003450;28;20489;-85
2022/04/13 05:02:46;;;;;;;17.73;13.05;;;;;;;10.22;64.89;101341.66;5002894;28;20238;-85
2022/04/13 05:05:14;;;;;;;23.10;20.83;;;;;;;11.26;64.91;101510.78;4988420;28;20050;-85
2022/04/13 05:07:41;;;;;;;15.77;13.10;;;;;;;10.94;64.69;101449.50;5003404;28;20086;-85
2022/04/13 05:10:09;;;;;;;14.68;11.75;;;;;;;10.88;64.78;101446.38;4988456;28;20064;-85
2022/04/13 05:12:51;;;;;;;14.77;12.38;;;;;;;11.44;64.21;101527.97;4987028;28;20050;-85
2022/04/13 05:15:19;;;;;;;16.92;12.40;;;;;;;11.37;64.57;101509.97;4988087;28;20074;-85
2022/04/13 05:17:45;;;;;;;17.38;13.35;;;;;;;11.44;64.73;101517.34;4986391;28;20148;-84
2022/04/13 05:20:14;;;;;;;15.82;13.23;;;;;;;11.28;64.29;101483.13;4986493;28;20057;-86
2022/04/13 05:22:41;;;;;;;16.88;12.45;;;;;;;11.52;64.25;101525.56;4988475;28;20761;-86
2022/04/13 05:25:13;;;;;;;17.42;12.90;;;;;;;11.61;64.18;101529.31;5026106;28;20050;-86
2022/04/13 05:27:40;;;;;;;16.05;13.48;;;;;;;11.45;63.96;101505.72;5046415;28;20134;-85
2022/04/13 05:30:08;;;;;;;21.33;13.45;;;;;;;11.66;64.10;101531.63;5033177;28;20063;-86
2022/04/13 05:32:57;;;;;;;15.70;12.27;;;;;;;11.77;63.63;101539.59;5029776;28;20056;-85
2022/04/13 05:35:25;;;;;;;16.58;12.90;;;;;;;11.46;63.57;101488.00;5044611;28;20093;-85
2022/04/13 05:37:53;;;;;;;18.70;13.10;;;;;;;11.91;62.77;101541.19;5030096;28;20081;-85
2022/04/13 05:40:20;;;;;;;14.07;12.45;;;;;;;11.83;62.71;101528.47;5023177;28;20056;-86
2022/04/13 05:42:47;;;;;;;15.75;13.77;;;;;;;11.84;62.42;101518.66;5022065;28;20050;-84
2022/04/13 05:45:14;;;;;;;15.63;13.07;;;;;;;11.36;62.37;101444.47;5021680;28;20050;-84
2022/04/13 05:47:44;;;;;;;15.85;13.30;;;;;;;11.70;62.51;101507.34;5006674;28;20065;-84
2022/04/13 05:50:12;;;;;;;17.83;13.10;;;;;;;11.96;62.48;101549.66;5007150;28;20053;-84
2022/04/13 05:52:40;;;;;;;16.50;12.50;;;;;;;11.95;62.43;101542.66;5005208;28;20108;-85
2022/04/13 05:55:07;;;;;;;17.25;13.02;;;;;;;11.87;61.76;101527.31;5010468;28;20057;-85
2022/04/13 05:57:34;;;;;;;15.68;12.60;;;;;;;12.05;61.82;101559.56;5022250;28;20494;-85
2022/04/13 06:00:01;;;;;;;14.00;12.48;;;;;;;12.17;61.27;101563.91;5006311;28;20058;-85
2022/04/13 06:02:27;;;;;;;16.48;12.82;;;;;;;12.06;61.40;101550.59;5021702;28;20392;-84
2022/04/13 06:04:54;;;;;;;15.55;12.77;;;;;;;11.83;61.88;101511.66;5005240;28;20046;-85
2022/04/13 06:07:21;;;;;;;16.60;12.52;;;;;;;11.60;61.58;101471.75;5006794;28;20145;-84
2022/04/13 06:09:48;;;;;;;20.63;11.88;;;;;;;12.21;61.74;101564.53;5006569;28;20139;-84
2022/04/13 06:12:22;;;;;;;21.52;13.00;;;;;;;12.28;61.04;101564.84;5005301;28;20295;-85
2022/04/13 06:14:49;;;;;;;13.45;11.43;;;;;;;12.04;61.02;101514.44;5006861;28;20077;-85
2022/04/13 06:17:16;;;;;;;12.77;11.48;;;;;;;11.32;61.26;101402.19;5005480;28;20042;-84
2022/04/13 06:19:43;;;;;;;16.67;12.25;;;;;;;12.43;60.52;101573.41;5019761;28;20088;-85
2022/04/13 06:22:13;;;;;;;15.07;12.35;;;;;;;11.00;60.54;101321.53;5020421;28;20503;-85
2022/04/13 06:24:40;;;;;;;20.15;12.23;;;;;;;11.39;60.26;101391.91;5006104;28;20129;-86
2022/04/13 06:27:10;;;;;;;22.70;12.98;;;;;;;12.58;60.53;101550.88;5005625;28;20050;-85
2022/04/13 06:29:57;;;;;;;;;;;;;;;;;;;;;
2022/04/13 06:32:43;;;;;;;16.63;11.63;;;;;;;11.83;60.02;101427.38;5003321;28;20791;-85
2022/04/13 06:35:15;;;;;;;17.95;12.23;;;;;;;11.03;59.92;101294.69;5021158;28;20046;-85
2022/04/13 06:37:44;;;;;;;14.07;11.63;;;;;;;12.47;59.45;101508.28;5004889;28;20042;-84
2022/04/13 06:40:16;;;;;;;15.93;12.15;;;;;;;12.81;59.56;101575.59;5004652;28;20049;-84
2022/04/13 06:42:43;;;;;;;12.00;10.80;;;;;;;11.38;59.26;101314.94;5004141;28;20511;-84
2022/04/13 06:45:12;;;;;;;17.55;14.50;;;;;;;12.33;59.64;101477.47;5004570;28;20057;-85
2022/04/13 06:47:40;;;;;;;14.13;10.88;;;;;;;12.42;59.83;101486.50;5004746;28;20057;-85
2022/04/13 06:50:08;;;;;;;16.50;11.07;;;;;;;13.03;59.16;101583.53;5004046;28;20089;-85
2022/04/13 06:52:35;;;;;;;16.88;10.88;;;;;;;13.07;59.26;101588.59;5008804;28;20496;-86
2022/04/13 06:55:05;;;;;;;13.45;10.77;;;;;;;13.11;59.71;101579.38;5004037;28;20053;-86
2022/04/13 06:57:33;;;;;;;10.30;8.90;;;;;;;13.09;59.16;101566.16;5005670;28;20137;-84
2022/04/13 07:00:00;;;;;;;15.80;10.73;;;;;;;13.14;59.19;101561.28;5003653;28;20647;-85
2022/04/13 07:02:27;;;;;;;11.32;10.02;;;;;;;13.42;59.11;101593.63;5013621;28;20064;-85
2022/04/13 07:04:54;;;;;;;15.13;11.18;;;;;;;13.53;58.96;101585.56;5005240;28;20133;-85
2022/04/13 07:07:21;;;;;;;17.85;10.88;;;;;;;13.13;59.11;101508.06;5014252;28;20073;-87
2022/04/13 07:09:47;;;;;;;13.43;12.05;;;;;;;13.03;59.05;101487.56;5005950;28;20076;-87
2022/04/13 07:12:14;;;;;;;15.77;11.82;;;;;;;13.73;58.27;101586.50;5006177;28;20050;-87
2022/04/13 07:14:41;;;;;;;15.00;11.73;;;;;;;13.60;57.87;101564.53;5022085;28;20116;-85
2022/04/13 07:17:09;;;;;;;17.17;11.70;;;;;;;13.86;57.63;101597.81;5021844;28;20046;-87
2022/04/13 07:19:36;;;;;;;21.40;12.65;;;;;;;13.24;56.98;101511.50;5023016;28;20141;-86
2022/04/13 07:22:03;;;;;;;14.07;12.10;;;;;;;13.90;57.13;101596.53;5022472;28;20081;-85
2022/04/13 07:24:37;;;;;;;14.85;13.35;;;;;;;13.51;57.12;101538.66;5025620;28;20123;-87
2022/04/13 07:27:03;;;;;;;17.63;14.15;;;;;;;12.92;57.22;101426.31;5041555;28;20049;-87
2022/04/13 07:29:30;;;;;;;14.07;12.65;;;;;;;12.84;56.76;101418.16;5025138;28;20111;-86
2022/04/13 07:31:56;;;;;;;14.88;13.40;;;;;;;13.95;56.74;101608.66;5027319;28;20535;-86
2022/04/13 07:34:25;;;;;;;18.10;13.85;;;;;;;12.34;56.68;101330.91;5027214;28;20212;-87
2022/04/13 07:36:52;;;;;;;16.38;12.95;;;;;;;12.72;56.54;101379.19;5026008;28;20053;-86
2022/04/13 07:39:19;;;;;;;15.93;13.38;;;;;;;14.11;56.31;101607.19;5025548;28;20045;-87
2022/04/13 07:41:46;;;;;;;16.05;13.20;;;;;;;12.81;55.88;101389.06;5025959;28;20723;-86
2022/04/13 07:44:14;;;;;;;17.05;15.25;;;;;;;14.10;55.74;101604.63;5027300;28;20085;-86
2022/04/13 07:46:56;;;;;;;15.63;14.10;;;;;;;13.14;55.60;101440.47;5026959;28;20462;-87
2022/04/13 07:49:50;;;;;;;16.58;14.38;;;;;;;12.89;55.21;101381.28;5027000;28;20144;-86
2022/04/13 07:52:20;;;;;;;18.40;14.25;;;;;;;13.73;54.90;101510.94;5026669;28;20119;-87
2022/04/13 07:54:47;;;;;;;15.75;13.02;;;;;;;13.83;56.44;101528.66;5027199;28;20045;-85
2022/04/13 07:57:13;;;;;;;13.98;12.52;;;;;;;14.53;56.16;101611.50;5027005;28;20469;-85
2022/04/13 07:59:41;;;;;;;14.65;13.15;;;;;;;13.74;57.13;101494.81;5026086;28;20491;-84
2022/04/13 08:02:09;;;;;;;15.32;13.05;;;;;;;14.06;57.66;101534.66;5026234;28;20370;-87
2022/04/13 08:04:36;;;;;;;15.02;13.32;;;;;;;14.16;57.46;101542.69;5026955;28;20129;-85
2022/04/13 08:07:03;;;;;;;12.55;11.25;;;;;;;14.66;58.14;101633.53;5031893;28;20083;-85
2022/04/13 08:09:30;;;;;;;15.88;13.35;;;;;;;14.58;59.26;101627.16;5031999;28;20069;-86
2022/04/13 08:11:56;;;;;;;11.95;10.75;;;;;;;14.56;60.08;101629.13;5030473;28;20329;-86
2022/04/13 08:14:23;;;;;;;14.32;12.93;;;;;;;14.41;62.25;101613.44;5045650;28;20053;-86
2022/04/13 08:16:50;;;;;;;16.83;11.75;;;;;;;14.11;60.82;101526.22;5045453;28;20077;-86
2022/04/13 08:19:17;;;;;;;16.08;14.00;;;;;;;13.90;61.58;101489.78;5029329;28;20451;-85
2022/04/13 08:21:44;;;;;;;19.10;16.10;;;;;;;14.87;62.27;101621.84;5029742;28;20384;-85
2022/04/13 08:24:11;;;;;;;17.85;14.10;;;;;;;14.78;63.78;101626.19;5015526;28;20116;-85
2022/04/13 08:26:37;;;;;;;16.50;14.65;;;;;;;13.70;63.77;101448.00;5025498;28;20046;-85
2022/04/13 08:29:04;;;;;;;14.98;13.45;;;;;;;14.25;63.10;101491.13;5008793;28;20112;-85
2022/04/13 08:31:31;;;;;;;15.32;12.65;;;;;;;14.08;63.80;101484.63;5010812;28;20046;-85
2022/04/13 08:33:58;;;;;;;16.23;13.18;;;;;;;14.98;63.85;101618.19;5010250;28;20096;-85
2022/04/13 08:36:24;;;;;;;16.38;11.50;;;;;;;14.73;64.28;101569.66;5008710;28;20060;-85
2022/04/13 08:38:51;;;;;;;12.52;11.07;;;;;;;14.96;65.33;101634.41;5008547;28;20042;-85
2022/04/13 08:41:36;;;;;;;13.63;10.27;;;;;;;15.23;65.01;101641.72;5009684;28;20147;-86
2022/04/13 08:44:11;;;;;;;12.55;9.73;;;;;;;15.38;64.37;101655.50;5008391;28;20049;-86
2022/04/13 08:46:40;;;;;;;16.58;9.43;;;;;;;15.25;64.84;101649.59;5009805;28;20054;-86
2022/04/13 08:49:09;;;;;;;9.48;7.82;;;;;;;15.10;64.09;101615.25;5008387;28;20107;-85
2022/04/13 08:52:00;;;;;;;11.88;8.82;;;;;;;15.38;64.68;101660.84;5010716;28;20132;-85
2022/04/13 08:54:31;;;;;;;11.57;10.18;;;;;;;15.15;65.45;101629.03;5008478;28;20046;-84
2022/04/13 08:56:58;;;;;;;12.40;10.20;;;;;;;15.29;65.50;101645.63;5008246;28;20404;-85
2022/04/13 09:00:03;;;;;;;11.57;10.20;;;;;;;15.10;65.43;101625.13;5008248;28;20484;-85
2022/04/13 09:02:43;;;;;;;13.45;11.00;;;;;;;15.30;64.55;101652.69;5008151;28;20665;-85
2022/04/13 09:05:14;;;;;;;15.07;12.70;;;;;;;14.95;64.36;101605.94;5008157;28;20486;-85
2022/04/13 09:07:42;;;;;;;14.40;11.82;;;;;;;15.22;63.72;101660.56;5008392;28;20471;-84
2022/04/13 09:10:29;;;;;;;13.30;10.10;;;;;;;15.31;62.90;101655.22;5008342;28;20056;-84
2022/04/13 09:12:56;;;;;;;16.38;9.95;;;;;;;15.19;62.05;101594.81;5009509;28;20326;-85
2022/04/13 09:15:25;;;;;;;15.18;10.20;;;;;;;14.98;62.78;101559.38;5008308;28;20049;-84
2022/04/13 09:17:51;;;;;;;11.50;9.45;;;;;;;15.70;61.15;101644.47;5007594;28;20473;-86
2022/04/13 09:20:18;;;;;;;10.52;8.27;;;;;;;15.25;59.17;101574.69;5013513;28;20112;-87
2022/04/13 09:22:46;;;;;;;13.63;9.48;;;;;;;15.89;58.54;101648.94;5016106;28;20105;-86
2022/04/13 09:25:13;;;;;;;12.43;9.80;;;;;;;15.20;58.37;101518.97;5029952;28;20509;-84
2022/04/13 09:27:40;;;;;;;13.18;11.02;;;;;;;15.97;59.24;101657.13;5029470;28;20057;-85
2022/04/13 09:30:08;;;;;;;14.55;11.52;;;;;;;15.07;60.57;101491.66;5045460;28;20472;-86
2022/04/13 09:32:35;;;;;;;12.80;10.32;;;;;;;16.26;59.57;101650.78;5029035;28;20409;-86
2022/04/13 09:35:05;;;;;;;15.48;10.32;;;;;;;15.47;60.02;101520.84;5030720;28;20068;-86
2022/04/13 09:37:33;;;;;;;11.82;9.70;;;;;;;14.99;59.56;101397.97;5044632;28;20152;-86
2022/04/13 09:40:00;;;;;;;10.23;9.13;;;;;;;16.34;58.91;101624.09;5027834;28;20141;-86
2022/04/13 09:42:27;;;;;;;10.88;9.38;;;;;;;16.41;57.45;101601.06;5027646;28;20131;-86
2022/04/13 09:44:56;;;;;;;11.90;9.65;;;;;;;16.16;59.60;101553.53;5027377;28;20245;-88
2022/04/13 09:47:30;;;;;;;12.55;10.05;;;;;;;15.91;59.96;101491.66;5027429;28;20416;-88
2022/04/13 09:49:56;;;;;;;11.85;10.70;;;;;;;15.57;60.03;101414.59;5043929;28;20145;-86
2022/04/13 09:52:32;;;;;;;12.65;9.88;;;;;;;17.05;57.96;101625.19;5044710;28;20064;-86
2022/04/13 09:54:59;;;;;;;10.43;9.18;;;;;;;17.14;57.59;101597.44;5029154;28;20057;-87
2022/04/13 09:57:26;;;;;;;11.13;9.23;;;;;;;17.23;55.82;101585.78;5029187;28;20483;-85
2022/04/13 09:59:55;;;;;;;13.73;9.68;;;;;;;17.41;55.25;101579.53;5027508;28;20168;-85
2022/04/13 10:02:41;;;;;;;10.50;9.38;;;;;;;17.64;55.49;101620.94;5026554;28;20062;-85
2022/04/13 10:05:20;;;;;;;10.15;9.10;;;;;;;17.32;54.49;101562.53;5026038;28;20136;-86
2022/04/13 10:08:14;;;;;;;12.35;9.35;;;;;;;17.66;54.51;101613.56;5028625;28;20495;-87
2022/04/13 10:10:46;;;;;;;9.00;7.78;;;;;;;17.99;52.60;101638.00;5024900;28;20514;-83
2022/04/13 10:13:30;;;;;;;6.65;5.97;;;;;;;18.22;48.61;101614.06;5028089;28;20057;-84
2022/04/13 10:15:59;;;;;;;7.28;5.60;;;;;;;17.49;48.30;101456.09;5030220;28;20041;-85
2022/04/13 10:18:48;;;;;;;4.93;4.40;;;;;;;18.71;45.04;101630.34;5028436;28;20057;-86
2022/04/13 10:21:32;;;;;;;6.22;5.55;;;;;;;18.39;44.61;101538.84;5018211;28;20041;-85
2022/04/13 10:24:07;;;;;;;6.22;5.40;;;;;;;18.71;44.91;101610.66;5016380;28;20053;-85
2022/04/13 10:26:34;;;;;;;7.07;6.15;;;;;;;18.99;46.26;101625.53;5008483;28;20058;-85
2022/04/13 10:29:00;;;;;;;6.80;6.20;;;;;;;18.99;47.76;101628.25;5008853;28;20523;-86
2022/04/13 10:31:27;;;;;;;11.75;6.15;;;;;;;19.07;48.00;101634.63;5007371;28;20045;-88
2022/04/13 10:33:55;;;;;;;13.18;6.05;;;;;;;18.99;48.73;101611.25;5007150;28;20077;-86
2022/04/13 10:36:22;;;;;;;7.63;6.93;;;;;;;19.19;49.16;101609.91;5009237;28;20587;-87
2022/04/13 10:38:49;;;;;;;8.25;7.10;;;;;;;19.38;49.74;101611.41;5008274;28;20357;-86
2022/04/13 10:41:18;;;;;;;8.35;7.38;;;;;;;19.23;49.53;101553.91;5010040;28;20492;-86
2022/04/13 10:43:50;;;;;;;7.85;7.05;;;;;;;19.75;49.90;101603.81;5025536;28;20499;-87
2022/04/13 10:46:20;;;;;;;8.68;7.88;;;;;;;19.31;49.87;101497.34;5008530;28;20053;-86
2022/04/13 10:48:54;;;;;;;14.40;8.00;;;;;;;20.06;50.16;101602.00;5007699;28;20046;-87
2022/04/13 10:51:30;;;;;;;9.27;8.38;;;;;;;20.02;49.15;101543.25;5008167;28;20149;-87
2022/04/13 10:54:03;;;;;;;10.07;7.82;;;;;;;20.56;48.64;101577.53;5008340;28;20096;-86
2022/04/13 10:56:32;;;;;;;7.70;7.00;;;;;;;20.21;48.91;101520.41;5009020;28;20475;-87
2022/04/13 10:59:21;;;;;;;8.30;7.57;;;;;;;20.72;48.49;101571.19;5007277;28;20081;-86
2022/04/13 11:02:24;;;;;;;9.57;7.93;;;;;;;20.70;48.15;101563.25;5007284;28;20479;-86
2022/04/13 11:04:53;;;;;;;7.90;7.20;;;;;;;20.84;48.68;101583.25;4982227;28;20058;-86
2022/04/13 11:07:20;;;;;;;9.75;7.15;;;;;;;20.80;48.79;101561.19;5007742;28;20073;-87
2022/04/13 11:09:49;;;;;;;8.20;7.40;;;;;;;21.01;49.02;101584.78;5006563;28;20050;-87
2022/04/13 11:12:16;;;;;;;8.63;6.75;;;;;;;21.07;48.53;101575.97;5006700;28;20129;-87
2022/04/13 11:14:53;;;;;;;12.20;6.80;;;;;;;20.28;48.26;101395.47;5007662;28;20296;-87
2022/04/13 11:17:19;;;;;;;7.55;6.85;;;;;;;21.29;48.27;101530.22;5005314;28;20510;-86
2022/04/13 11:19:48;;;;;;;7.75;6.95;;;;;;;21.01;47.76;101457.91;5007065;28;20574;-86
2022/04/13 11:22:19;;;;;;;8.45;6.32;;;;;;;20.81;46.89;101392.84;5007186;28;20293;-87